Terminal Aerodrome Forecast
Issued by NWS Northern Indiana

Home | Current Version | Previous Version | Text Only | Print | Product List | Glossary Off
Versions: 1 2 3 4 5 6 7 8 9 10 11 12 13 14 15 16

000
FTUS43 KIWX 311500 AAA
TAFFWA
TAF AMD
KFWA 311510Z 3115/0112 23007KT P6SM SCT008 BKN015
      TEMPO 3115/3117 BKN008
     FM312100 23006KT P6SM BKN035
     FM010700 20005KT 5SM BR BKN015=

USA.gov is the U.S. government's official web portal to all federal, state and local government web resources and services.